Timeline UpdatesTrip UpdatesNews PostsPvt PostsTravel TipsAdmin PostsConv PostsFollowed PostsChat RequestsBlog PostsPNR Posts

Disclaimer
Search
 
 
Thu Apr 24, 2014 19:16:20 ISTHomeTrainsΣChainsAtlasPNRForumGalleryNewsFAQTripsMembersLoginFeedback
No Recent News for this Train
Other Trains in the News **new
Latest...
The Slip Coach service from 17479 Puri-Tirupati Express and 17206 Kakinada-Shirdi Express will be withdrawn from 26th July 2013
Wed Jul 24, 2013 (07:52PM)
⇐ Return Journey: Train# 17480

17479-Slip/Puri-Shirdi Express Slip

TRAIN IS CANCELLED
Change Departure Station:
Change Arrival Station:
Post a Train Travel TipPost a Train Travel Tip **new
Post a Comment/Question/Picture/VideoPost a Comment/Question/Picture/Video
Pantry/Catering
???
Loco/Rake Reversals
BZA/Vijayawada Junction (10); KUR/Khurda Road Junction (7); VSKP/Visakhapatnam Junction (8); PBN/Parbhani Junction (3); PRLI/Parli Vaijnath (3);
RSA - Rake Sharing
Rake/Coach Composition
Loco
News    PNR    Forum    Time-Table    Availability    Fare Chart    Map    Arr/Dep History    Trips    Gallery    ΣChains    X/O    Timeline    
Travel Time: 3h 4m    10 halts    Distance: 143 km    Avg Speed: 46 km/hr
Type: Mail/Express
Zone: ECoR/East Coast
Departs @ 12:25 (Avg on time)
Platform# ???
     F 
Puri/PURI 
Arrives @ 15:29 (Avg 28m late)
Platform# ???
     F 
Rambha/RBA 

10 halts. 26 intermediate Stations between Puri and Rambha

Show ALL intermediate Stations  Show Old Time-Table

#CodeStation NameX/OArrivesAvgDepartsAvgHaltPFDay#KmSpeedElevZoneAddress
1PURI»Puri (5)»  -12:25+0--10.04912mECoRPuri, Odisha
2SILSakhi Gopal (3)  12:45+1912:46+201m--116.44210mECoRPuri, Odisha
3KURKhurda Road Junction (7)13:25+2013:50+2525m--143.97625mECoRKhordha, Odisha
4NKPNirakarpur  14:11+2614:12+271m--170.35321mECoRNirakarpur, Odisha
5BSDPBhusandpur  14:20+2514:21+301m--177.46620mECoRBhushandapur, Odisha
6KAPGKalupara Ghat  14:30+2914:31+291m--187.35810mECoRChandeswar, Odisha
7KUUKuhuri  14:38+2814:39+281m--194.06026mECoRKhordha, Odisha
8GNGDGangadharpur  14:47+2714:48+271m--1102.06022mECoRKhordha, Odisha
9BALUBalugaon (3)  15:01+2915:02+301m--1115.06211mECoR752030, Odisha
10CLKAChilka  15:09+2815:10+281m--1122.27525mECoRBarkul, Odisha
11KITKhallikot (3)  15:18+2815:19+281m--1132.26713mECoRKhallikot, Odisha
12RBA•Rambha•  15:29+2815:30+281m--1143.48014mECoRGanjam District, Odisha
13GAMGanjam  15:43+3215:44+331m--1160.7538mECoRGanjam, Odisha
14CAPChatrapur  15:54+3115:55+321m--1169.66436mECoRChatrapur, Odisha
15BAMBrahmapur (3)  16:15+3116:20+325m--1191.06727mECoRBerhampur, Odisha
16IPMIchchapuram  16:42+3116:43+321m--1215.56021mECoRIchchapuram, Andhra Pradesh
17SPTSompeta (4)  17:01+2617:02+271m--1233.58748mECoRKanchili, Andhra Pradesh
18MMSMandasa Road  17:15-117:16+01m--1252.31138mECoRSrikakulam, Andhra Pradesh
19PSAPalasa (3)  18:25+018:30+05m--1265.46731mECoRKasibugga, Andhra Pradesh
20PUNPundi  18:41+818:42+91m--1277.66238mECoRSrikakulam, Andhra Pradesh
21NWPNaupada Junction  18:55+718:56+81m--1291.17513mECoRNuapada . ph.no. 08945-249728, Andhra Pradesh
22KBMKotabommali  19:07+819:08+91m--1304.97513mECoRSrikakulam, Andhra Pradesh
23TIUTilaru (4)  19:19+819:20+91m--1318.65950mECoRSrikakulam District, Andhra Pradesh
24CHESrikakulam Road (4)  19:40+419:45+15m--1338.44334mECoRsrikakulam road ph .no. 08942-287222, Andhra Pradesh
25DUSIDusi  19:54-119:55+01m--1344.85928mECoRSrikakulam, Andhra Pradesh
26PDUPonduru  20:04-120:05+01m--1353.76739mECoRSrikakulam, Andhra Pradesh
27SGDMSigadam  20:14+320:15+31m--1363.77267mECoRSrikakulam, Andhra Pradesh
28CPPChipurupalle  20:26+220:27+301m--1377.04499mECoRCheepurupalli, Andhra Pradesh
29GVIGarividi  20:36+2720:37+281m--1383.62892mECoRGarividi Railway Station Rd, Andhra Pradesh
30VZMVizianagaram Junction (5)  21:30-221:35+35m--1407.96863mECoRVizianagaram ph.no 08922-225510, Andhra Pradesh
31KTVKottavalasa Junction (5)  22:06+722:07+81m--1442.96458mECoRVizianagaram District, Andhra Pradesh
32SCMSimhachalam (2)  22:24-122:25+01m--1460.9927mECoRVisakhapatnam, Andhra Pradesh
33VSKPVisakhapatnam Junction (8)23:20+023:40+1020m--1469.03411mECoRVishakhapatnam 530001, Andhra Pradesh
34DVDDuvvada (4)  00:09+900:10+101m--2485.45346mECoRVishakhapatnam District, Andhra Pradesh
35AKPAnakapalle (3)  00:28+2000:29+211m--2501.45930mSCRAnakapalle ph.no . 08924-221698, Andhra Pradesh
36YLMElamanchili (2)  00:53+1500:54+151m--2525.110423mSCRVisakhapatnam District, Andhra Pradesh
37TUNITuni (2)  01:17+2201:18+231m12565.17124mSCRTuni ph.no. 08854-252172, Andhra Pradesh
38ANVAnnavaram (3)  01:32+2401:33+251m12581.88327mSCREast Godavari District, Andhra Pradesh
39PAPPithapuram (2)  01:51+2701:52+271m--2606.65622mSCREast Godavari District, Andhra Pradesh
40SLOSamalkot Junction (3)  02:05+2502:06+251m32618.78418mSCRKakinada ph.no.0884-2328824, Andhra Pradesh
41APTAnaparti (3)  02:25+2602:26+261m--2645.24521mSCREast Godavari District, Andhra Pradesh
42DWPDwarapudi (3)  02:31+2602:32+261m--2648.93120mSCREast Godavari District, Andhra Pradesh
43RJYRajahmundry (3)  03:10+3003:25+3515m12668.83623mSCRRajahmundry ph.no. 0883-2420541, Andhra Pradesh
44KVRKovvur (3)  03:38+3603:39+371m--2676.74325mSCRWest Godavari, Andhra Pradesh
45NDDNidadavolu Junction (3)  03:59+2904:00+301m--2691.05420mSCRNidadavolu jtn ph.no. 08813-210325, Andhra Pradesh
46TNKUTanuku (2)  04:19+3704:20+371m--2708.14512mSCR131, Andhra Pradesh
47ALAttili (1)  04:34+3704:35+381m--2718.74614mSCRWest Godavari, Andhra Pradesh
48BVRTBhimavaram Town (2)  05:01+3105:02+321m--2738.5488mSCRBhimavaram, Andhra Pradesh
49AKVDAkividu (3)  05:24+2905:25+411m--2756.2485mSCRCoast Andhra, Andhra Pradesh
50KKLRKaikaluru (2)  05:46+4505:47+461m--2772.8348mSCRKaikalur, Andhra Pradesh
51GDVGudivada Junction (3)  06:39+2606:40+271m--2802.13211mSCRKrishna District, Andhra Pradesh
52BZAVijayawada Junction (10)08:00+2510:30+0150m--2845.38624mSCRVijayawada 520001, Andhra Pradesh
53KMTKhammam (2)  11:40-11:42-2m--2945.760118mSCRKhammam 507001, Andhra Pradesh
54WLWarangal (3)  13:30-13:32-2m--21053.334271mSCRWarangal., Andhra Pradesh
55KZJKazipet Junction (3)  13:50-13:52-2m321063.452292mSCRKazipet, Andhra Pradesh
56SCSecunderabad Junction (10)  16:25-16:40-15m621195.044539mSCRSecunderabad 500003, Andhra Pradesh
57VKBVikarabad Junction (3)  18:20-18:25-5m221267.652633mSCRVikarabad, Andhra Pradesh
58BIDRBidar (3)  20:10-20:15-5m--21358.746673mSCRBidar ph.no 08482 226404, Karnataka
59PRLIParli Vaijnath (3)↵¶00:05-00:15-10m131535.559462mSCRParli-Vaijnath, Maharashtra
60PBNParbhani Junction (3)↵¶01:20-01:30-10m231599.760414mSCRParbhani 431401, Maharashtra
61JJalna (3)  03:25-03:27-2m--31714.143502mSCRJalna, Maharashtra
62AWBAurangabad (5)  04:55-05:00-5m--31776.853561mSCRAurangabad 431001, Maharashtra
63NSLNagarsol (2)  06:40-06:45-5m--31865.433589mSCRDist. Nashik, Maharashtra
64MMRManmad Junction (6)  07:30-07:35-5m531890.350580mCRManmad 423104, Maharashtra
65SNSISainagar Shirdi (1)  09:15--131973.4-509mCRShirdi 423109, Maharashtra
Scroll to Top
Scroll to Bottom